Furacão LARRY 2021: trajetória, intensidade e histórico
11/09/2021, 18:00:00
31/08/2021, 18:00:00 – 11/09/2021, 18:00:00
Trajetória histórica
Acompanhe a evolução e o deslocamento de Furacão LARRY em 2021, com a trajetória completa registrada, ventos máximos sustentados de 110 nós, pressão central mínima e cronologia detalhada.
| Data | Hora | Tipo | Ventokm/h | PressãohPa |
|---|---|---|---|---|
| 11/09 | 18:00 | EXCiclone extratropical | 100 | 967 |
| 11/09 | 15:00 | EXCiclone extratropical | 105 | 965 |
| 11/09 | 12:00 | EXCiclone extratropical | 110 | 963 |
| 11/09 | 09:00 | TSTempestade tropical | 115 | 961 |
| 11/09 | 06:00 | HFuracão | 120 | 959 |
| 11/09 | 03:30 | HFuracão | 130 | 958 |
| 11/09 | 03:00 | HFuracão | 130 | 958 |
| 11/09 | 00:00 | HFuracão | 130 | 958 |
| 10/09 | 21:00 | HFuracão | 130 | 958 |
| 10/09 | 18:00 | HFuracão | 130 | 958 |
| 10/09 | 15:00 | HFuracão | 130 | 960 |
| 10/09 | 12:00 | HFuracão | 130 | 961 |
| 10/09 | 09:00 | HFuracão | 135 | 963 |
| 10/09 | 06:00 | HFuracão | 140 | 964 |
| 10/09 | 03:00 | HFuracão | 145 | 965 |
| 10/09 | 00:00 | HFuracão | 150 | 966 |
| 09/09 | 21:00 | HFuracão | 150 | 966 |
| 09/09 | 18:00 | HFuracão | 150 | 966 |
| 09/09 | 15:00 | HFuracão | 150 | 966 |
| 09/09 | 12:00 | HFuracão | 150 | 966 |
| 09/09 | 09:00 | HFuracão | 150 | 967 |
| 09/09 | 06:00 | HFuracão | 150 | 968 |
| 09/09 | 03:00 | HFuracão | 155 | 968 |
| 09/09 | 00:00 | HFuracão | 155 | 968 |
| 08/09 | 21:00 | HFuracão | 165 | 968 |
| 08/09 | 18:00 | HFuracão | 165 | 967 |
| 08/09 | 15:00 | HFuracão | 165 | 967 |
| 08/09 | 12:00 | HFuracão | 165 | 966 |
| 08/09 | 09:00 | HFuracão | 170 | 966 |
| 08/09 | 06:00 | HFuracão | 175 | 966 |
| 08/09 | 03:00 | HFuracão | 175 | 966 |
| 08/09 | 00:00 | HFuracão | 175 | 966 |
| 07/09 | 21:00 | HFuracão | 175 | 966 |
| 07/09 | 18:00 | HFuracão | 175 | 965 |
| 07/09 | 15:00 | HFuracão | 175 | 964 |
| 07/09 | 12:00 | HFuracão | 175 | 963 |
| 07/09 | 09:00 | HFuracão | 180 | 962 |
| 07/09 | 06:00 | MHFuracão de grande intensidade | 185 | 960 |
| 07/09 | 03:00 | HFuracão | 190 | 958 |
| 07/09 | 00:00 | MHFuracão de grande intensidade | 195 | 956 |
| 06/09 | 21:00 | HFuracão | 195 | 956 |
| 06/09 | 18:00 | MHFuracão de grande intensidade | 195 | 956 |
| 06/09 | 15:00 | HFuracão | 195 | 956 |
| 06/09 | 12:00 | MHFuracão de grande intensidade | 195 | 956 |
| 06/09 | 09:00 | HFuracão | 195 | 956 |
| 06/09 | 06:00 | MHFuracão de grande intensidade | 195 | 956 |
| 06/09 | 03:00 | HFuracão | 200 | 955 |
| 06/09 | 00:00 | MHFuracão de grande intensidade | 205 | 953 |
| 05/09 | 21:00 | HFuracão | 205 | 953 |
| 05/09 | 18:00 | MHFuracão de grande intensidade | 205 | 953 |
| 05/09 | 15:00 | HFuracão | 205 | 953 |
| 05/09 | 12:00 | MHFuracão de grande intensidade | 205 | 953 |
| 05/09 | 09:00 | HFuracão | 200 | 956 |
| 05/09 | 06:00 | MHFuracão de grande intensidade | 195 | 958 |
| 05/09 | 03:00 | HFuracão | 195 | 958 |
| 05/09 | 00:00 | MHFuracão de grande intensidade | 195 | 958 |
| 04/09 | 21:00 | HFuracão | 195 | 958 |
| 04/09 | 18:00 | MHFuracão de grande intensidade | 195 | 958 |
| 04/09 | 15:00 | HFuracão | 200 | 957 |
| 04/09 | 12:00 | MHFuracão de grande intensidade | 205 | 956 |
| 04/09 | 09:00 | HFuracão | 205 | 956 |
| 04/09 | 06:00 | MHFuracão de grande intensidade | 205 | 956 |
| 04/09 | 03:00 | HFuracão | 195 | 960 |
| 04/09 | 00:00 | MHFuracão de grande intensidade | 185 | 964 |
| 03/09 | 21:00 | HFuracão | 175 | 969 |
| 03/09 | 18:00 | HFuracão | 165 | 973 |
| 03/09 | 15:00 | HFuracão | 155 | 977 |
| 03/09 | 12:00 | HFuracão | 150 | 980 |
| 03/09 | 09:00 | HFuracão | 150 | 982 |
| 03/09 | 06:00 | HFuracão | 150 | 983 |
| 03/09 | 03:00 | HFuracão | 145 | 984 |
| 03/09 | 00:00 | HFuracão | 140 | 985 |
| 02/09 | 21:00 | HFuracão | 135 | 986 |
| 02/09 | 18:00 | HFuracão | 130 | 987 |
| 02/09 | 15:00 | HFuracão | 130 | 987 |
| 02/09 | 12:00 | HFuracão | 130 | 987 |
| 02/09 | 09:00 | HFuracão | 125 | 989 |
| 02/09 | 06:00 | HFuracão | 120 | 991 |
| 02/09 | 03:00 | TSTempestade tropical | 115 | 994 |
| 02/09 | 00:00 | TSTempestade tropical | 110 | 996 |
| 01/09 | 21:00 | TSTempestade tropical | 105 | 998 |
| 01/09 | 18:00 | TSTempestade tropical | 100 | 999 |
| 01/09 | 15:00 | TSTempestade tropical | 95 | 1001 |
| 01/09 | 12:00 | TSTempestade tropical | 85 | 1003 |
| 01/09 | 09:00 | TSTempestade tropical | 80 | 1004 |
| 01/09 | 06:00 | TSTempestade tropical | 75 | 1004 |
| 01/09 | 03:00 | TSTempestade tropical | 70 | 1005 |
| 01/09 | 00:00 | TSTempestade tropical | 65 | 1005 |
| 31/08 | 21:00 | TDDepressão tropical | 60 | 1006 |
| 31/08 | 18:00 | TDDepressão tropical | 55 | 1006 |
Cronologia de localização
90 Registos de localizaçãoDesastres naturais próximos
Detalhes do evento
Ligações das fontes
Também pode encontrar estas ferramentas úteis
A localização, a extensão e o estado de cada evento podem ser atualizados em momentos diferentes consoante a fonte. Confirme decisões importantes junto das autoridades oficiais de emergência.
Os registos de eventos provêm da NASA EONET e são complementados por registos de deslizamentos de terra do USGS FDSN. As análises e previsões de tempestades podem utilizar a NOAA NHC ou o JTWC, com registos históricos ATCF da UCAR/NCAR quando disponíveis. As imagens de satélite provêm da NASA Worldview/GIBS (GOES e Himawari) ou da EUMETSAT Meteosat, consoante a cobertura do mapa.
Fontes: NASA EONET · USGS · NOAA NHC · JTWC · UCAR/NCAR ATCF · NASA Worldview/GIBS · EUMETSAT Meteosat · OpenStreetMap contributors